Time;durP1;ratioP1;P1;durP2;ratioP2;P2;SDS_P1;SDS_P2;PMS_P1;PMS_P2;Temp;Humidity;BMP_temperature;BMP_pressure;BME280_temperature;BME280_humidity;BME280_pressure;Samples;Min_cycle;Max_cycle;Signal;HPM_P1;HPM_P2
2022/11/24 00:01:50;;;;;;;5.55;1.73;;;17.20;59.40;;;;;;5055863;28;20179;-69
2022/11/24 00:04:16;;;;;;;3.22;1.30;;;17.20;59.40;;;;;;5055258;28;20199;-70
2022/11/24 00:06:41;;;;;;;3.50;1.30;;;17.20;59.40;;;;;;5055767;28;20633;-69
2022/11/24 00:09:07;;;;;;;2.83;1.45;;;17.20;59.40;;;;;;5055881;28;20533;-69
2022/11/24 00:11:34;;;;;;;2.00;1.40;;;17.20;59.50;;;;;;5054801;28;20579;-69
2022/11/24 00:13:59;;;;;;;2.78;1.38;;;17.20;59.50;;;;;;5055909;28;20179;-69
2022/11/24 00:16:29;;;;;;;1.73;1.40;;;17.10;59.50;;;;;;5055658;28;20276;-70
2022/11/24 00:18:56;;;;;;;3.83;1.35;;;17.20;59.60;;;;;;5054724;28;20664;-71
2022/11/24 00:21:22;;;;;;;3.22;1.50;;;17.10;59.60;;;;;;5055591;28;20183;-70
2022/11/24 00:23:47;;;;;;;4.53;1.60;;;17.10;59.60;;;;;;5055223;28;20203;-69
2022/11/24 00:26:22;;;;;;;3.22;1.38;;;17.10;59.60;;;;;;5054788;28;20179;-69
2022/11/24 00:28:48;;;;;;;4.15;1.50;;;17.10;59.70;;;;;;5055410;28;20184;-68
2022/11/24 00:31:15;;;;;;;3.22;1.60;;;17.00;59.60;;;;;;5055558;28;20190;-68
2022/11/24 00:33:41;;;;;;;2.50;1.42;;;17.00;59.70;;;;;;5054582;28;20182;-69
2022/11/24 00:36:06;;;;;;;3.22;1.23;;;17.00;59.60;;;;;;5055349;28;20177;-69
2022/11/24 00:38:32;;;;;;;2.03;1.33;;;17.00;59.70;;;;;;5054916;28;20175;-70
2022/11/24 00:40:57;;;;;;;3.35;1.58;;;17.00;59.70;;;;;;5054756;28;20207;-71
2022/11/24 00:43:23;;;;;;;3.08;1.38;;;17.00;59.70;;;;;;5055203;28;20178;-70
2022/11/24 00:45:48;;;;;;;4.07;1.35;;;17.00;59.70;;;;;;5055079;28;20187;-70
2022/11/24 00:48:14;;;;;;;3.20;1.50;;;17.00;59.70;;;;;;5054621;28;20530;-70
2022/11/24 00:50:40;;;;;;;1.98;1.20;;;16.90;59.70;;;;;;5054857;28;20533;-69
2022/11/24 00:53:05;;;;;;;2.65;1.65;;;17.00;59.70;;;;;;5053783;28;20715;-70
2022/11/24 00:55:31;;;;;;;3.15;1.50;;;16.90;59.70;;;;;;5054902;28;20577;-69
2022/11/24 00:57:56;;;;;;;2.78;1.60;;;16.90;59.70;;;;;;5055067;28;20175;-69
2022/11/24 01:00:22;;;;;;;2.03;1.42;;;16.90;59.70;;;;;;5054283;28;20719;-69
2022/11/24 01:02:47;;;;;;;3.10;1.20;;;16.90;59.80;;;;;;5054424;28;20543;-70
2022/11/24 01:05:13;;;;;;;4.50;1.60;;;16.90;59.80;;;;;;5054586;28;20218;-70
2022/11/24 01:07:38;;;;;;;3.22;1.50;;;16.90;59.80;;;;;;5053915;28;20171;-70
2022/11/24 01:10:04;;;;;;;3.13;1.38;;;16.80;59.70;;;;;;5054660;28;20648;-69
2022/11/24 01:12:30;;;;;;;2.88;1.63;;;16.90;59.80;;;;;;5054572;28;20530;-69
2022/11/24 01:14:57;;;;;;;1.83;1.20;;;16.80;59.80;;;;;;5053938;28;20261;-69
2022/11/24 01:17:22;;;;;;;1.98;1.38;;;16.90;59.70;;;;;;5054746;28;20171;-70
2022/11/24 01:19:48;;;;;;;5.88;1.52;;;16.80;60.60;;;;;;5054370;28;20262;-70
2022/11/24 01:22:14;;;;;;;2.63;1.30;;;16.80;59.80;;;;;;5053867;28;20171;-70
2022/11/24 01:24:39;;;;;;;3.45;1.60;;;16.80;60.50;;;;;;5054324;28;20203;-69
2022/11/24 01:27:05;;;;;;;2.60;1.17;;;16.80;59.80;;;;;;5054447;28;20551;-69
2022/11/24 01:29:31;;;;;;;3.20;1.63;;;16.80;59.80;;;;;;5053426;28;20213;-69
2022/11/24 01:31:56;;;;;;;2.78;1.40;;;16.80;59.80;;;;;;5054195;28;20186;-69
2022/11/24 01:34:22;;;;;;;4.32;1.83;;;16.80;59.80;;;;;;5054265;28;20171;-69
2022/11/24 01:36:47;;;;;;;2.78;1.65;;;16.70;59.80;;;;;;5053150;28;20171;-70
2022/11/24 01:39:13;;;;;;;2.78;1.60;;;16.70;59.80;;;;;;5054093;28;20626;-71
2022/11/24 01:41:38;;;;;;;3.97;1.40;;;16.70;59.80;;;;;;5053990;28;20182;-70
2022/11/24 01:44:24;;;;;;;4.43;1.77;;;16.70;59.80;;;;;;5053275;28;20216;-70
2022/11/24 01:46:53;;;;;;;2.10;1.45;;;16.70;59.80;;;;;;5053806;28;20526;-71
2022/11/24 01:49:32;;;;;;;4.20;1.73;;;16.70;59.80;;;;;;5053726;28;20221;-70
2022/11/24 01:52:00;;;;;;;2.60;1.70;;;16.70;59.80;;;;;;5053005;28;20190;-70
2022/11/24 01:54:30;;;;;;;1.95;1.30;;;16.70;59.80;;;;;;5053991;28;20183;-69
2022/11/24 01:56:59;;;;;;;1.88;1.42;;;16.70;60.00;;;;;;5053173;28;20638;-69
2022/11/24 01:59:25;;;;;;;4.70;1.55;;;16.70;59.90;;;;;;5052694;28;20254;-70
2022/11/24 02:01:50;;;;;;;5.00;1.90;;;16.70;59.90;;;;;;5052284;28;20579;-69
2022/11/24 02:04:18;;;;;;;3.40;1.73;;;16.70;59.80;;;;;;5052955;28;20545;-70
2022/11/24 02:06:43;;;;;;;2.95;1.50;;;16.70;59.90;;;;;;5052121;28;20522;-70
2022/11/24 02:09:16;;;;;;;3.88;1.27;;;16.60;59.80;;;;;;5053779;28;20186;-69
2022/11/24 02:11:42;;;;;;;4.10;1.60;;;16.60;59.80;;;;;;5051443;28;20304;-69
2022/11/24 02:14:09;;;;;;;2.25;1.60;;;16.60;59.90;;;;;;5053572;28;20596;-70
2022/11/24 02:16:35;;;;;;;3.95;1.55;;;16.60;59.90;;;;;;5051311;28;20296;-71
2022/11/24 02:19:02;;;;;;;3.28;1.67;;;16.60;59.90;;;;;;5051732;28;20231;-70
2022/11/24 02:21:28;;;;;;;2.83;1.65;;;16.60;60.70;;;;;;5052613;28;20190;-71
2022/11/24 02:23:55;;;;;;;4.40;1.80;;;16.60;59.90;;;;;;5053025;28;20215;-70
2022/11/24 02:26:27;;;;;;;2.05;1.25;;;16.50;59.90;;;;;;5052617;28;20668;-69
2022/11/24 02:28:52;;;;;;;2.05;1.15;;;16.60;59.90;;;;;;5051767;28;20183;-69
2022/11/24 02:31:18;;;;;;;4.18;1.73;;;16.60;60.70;;;;;;5053388;28;20614;-70
2022/11/24 02:33:43;;;;;;;3.30;1.20;;;16.60;59.90;;;;;;5051271;28;20178;-70
2022/11/24 02:36:09;;;;;;;2.70;1.33;;;16.50;59.90;;;;;;5052165;28;20171;-70
2022/11/24 02:38:34;;;;;;;3.55;1.50;;;16.50;59.90;;;;;;5052412;28;20171;-71
2022/11/24 02:41:03;;;;;;;3.85;1.63;;;16.50;59.90;;;;;;5053047;28;20692;-70
2022/11/24 02:43:31;;;;;;;2.72;1.58;;;16.50;59.90;;;;;;5051832;28;20183;-70
2022/11/24 02:45:56;;;;;;;3.85;1.52;;;16.50;59.90;;;;;;5051309;28;20540;-70
2022/11/24 02:48:22;;;;;;;1.83;1.27;;;16.50;59.90;;;;;;5053207;28;20195;-70
2022/11/24 02:50:47;;;;;;;2.97;1.75;;;16.50;59.90;;;;;;5052908;28;20641;-70
2022/11/24 02:53:13;;;;;;;2.83;1.42;;;16.50;59.90;;;;;;5052383;28;20602;-69
2022/11/24 02:55:39;;;;;;;3.17;1.50;;;16.50;60.10;;;;;;5052634;28;20273;-69
2022/11/24 02:58:04;;;;;;;3.40;1.63;;;16.50;60.00;;;;;;5052889;28;20182;-69
2022/11/24 03:00:30;;;;;;;2.67;1.52;;;16.50;59.90;;;;;;5052156;28;20183;-69
2022/11/24 03:02:55;;;;;;;4.25;1.73;;;16.50;60.00;;;;;;5052877;28;20652;-71
2022/11/24 03:05:21;;;;;;;2.17;1.42;;;16.50;60.00;;;;;;5052665;28;20264;-70
2022/11/24 03:07:46;;;;;;;2.85;1.42;;;16.40;60.00;;;;;;5051862;28;20213;-70
2022/11/24 03:10:12;;;;;;;3.67;1.23;;;16.40;60.00;;;;;;5052705;28;20171;-70
2022/11/24 03:12:37;;;;;;;2.97;1.25;;;16.40;60.00;;;;;;5052384;28;20171;-69
2022/11/24 03:15:04;;;;;;;3.65;2.08;;;16.40;60.10;;;;;;5051687;28;20175;-70
2022/11/24 03:17:30;;;;;;;3.55;1.50;;;16.40;60.10;;;;;;5052608;28;20179;-70
2022/11/24 03:19:56;;;;;;;3.20;1.60;;;16.40;60.10;;;;;;5052523;28;20186;-71
2022/11/24 03:22:21;;;;;;;3.13;1.50;;;16.40;60.10;;;;;;5051979;28;20185;-70
2022/11/24 03:24:47;;;;;;;5.22;1.83;;;16.40;60.90;;;;;;5052223;28;20219;-70
2022/11/24 03:27:12;;;;;;;2.70;1.42;;;16.40;60.10;;;;;;5052452;28;20163;-69
2022/11/24 03:29:38;;;;;;;2.83;1.50;;;16.40;60.20;;;;;;5054527;28;20189;-69
2022/11/24 03:32:03;;;;;;;2.80;1.30;;;16.40;60.20;;;;;;5056516;28;20548;-69
2022/11/24 03:34:29;;;;;;;4.25;1.58;;;16.40;60.20;;;;;;5056697;28;20225;-69
2022/11/24 03:36:55;;;;;;;3.28;1.60;;;16.40;60.20;;;;;;5055556;28;20536;-70
2022/11/24 03:39:20;;;;;;;3.30;1.45;;;16.40;60.30;;;;;;5056572;28;20699;-71
2022/11/24 03:41:46;;;;;;;2.63;1.58;;;16.30;60.20;;;;;;5056150;28;20171;-70
2022/11/24 03:44:11;;;;;;;1.40;1.30;;;16.40;60.30;;;;;;5055489;28;20218;-70
2022/11/24 03:46:37;;;;;;;2.47;1.65;;;16.40;60.30;;;;;;5056059;28;20179;-70
2022/11/24 03:49:02;;;;;;;3.83;1.50;;;16.30;60.30;;;;;;5055726;28;20167;-69
2022/11/24 03:51:28;;;;;;;2.28;1.70;;;16.30;60.30;;;;;;5056294;28;20179;-69
2022/11/24 03:53:53;;;;;;;5.18;1.75;;;16.30;60.30;;;;;;5055957;28;20197;-69
2022/11/24 03:56:19;;;;;;;3.78;1.60;;;16.30;60.40;;;;;;5055611;28;20258;-68
2022/11/24 03:58:45;;;;;;;2.10;1.33;;;16.30;60.30;;;;;;5055646;28;20175;-69
2022/11/24 04:01:10;;;;;;;2.65;1.58;;;16.30;60.40;;;;;;5056258;28;20629;-69
2022/11/24 04:03:36;;;;;;;2.53;1.45;;;16.30;60.40;;;;;;5055031;28;20552;-72
2022/11/24 04:06:01;;;;;;;3.38;1.75;;;16.30;60.50;;;;;;5056135;28;20604;-71
2022/11/24 04:08:27;;;;;;;3.50;1.35;;;16.30;60.50;;;;;;5056116;28;20549;-69
2022/11/24 04:10:53;;;;;;;4.93;1.77;;;16.30;60.60;;;;;;5054925;28;20175;-69
2022/11/24 04:13:20;;;;;;;3.15;1.30;;;16.30;60.60;;;;;;5055915;28;20244;-70
2022/11/24 04:15:46;;;;;;;2.25;1.50;;;16.30;60.60;;;;;;5055498;28;20233;-70
2022/11/24 04:18:12;;;;;;;4.70;1.50;;;16.20;60.40;;;;;;5054963;28;20539;-70
2022/11/24 04:20:37;;;;;;;3.20;1.73;;;16.20;60.40;;;;;;5055467;28;20172;-70
2022/11/24 04:23:03;;;;;;;3.55;2.03;;;16.20;60.40;;;;;;5055681;28;20183;-70
2022/11/24 04:25:29;;;;;;;3.85;1.42;;;16.20;60.50;;;;;;5054719;28;20618;-69
2022/11/24 04:27:55;;;;;;;3.30;1.65;;;16.20;60.50;;;;;;5055431;28;20586;-69
2022/11/24 04:30:21;;;;;;;3.53;2.08;;;16.20;60.40;;;;;;5055702;28;20175;-69
2022/11/24 04:32:46;;;;;;;2.75;1.45;;;16.20;60.60;;;;;;5054615;28;20171;-69
2022/11/24 04:35:12;;;;;;;4.53;1.75;;;16.20;60.60;;;;;;5055545;28;20201;-69
2022/11/24 04:37:38;;;;;;;3.95;1.67;;;16.20;60.60;;;;;;5055098;28;20170;-70
2022/11/24 04:40:05;;;;;;;2.95;1.67;;;16.20;60.50;;;;;;5054164;28;20653;-69
2022/11/24 04:42:30;;;;;;;2.30;1.58;;;16.20;60.50;;;;;;5054847;28;20190;-70
2022/11/24 04:44:56;;;;;;;3.78;1.60;;;16.20;60.70;;;;;;5055296;28;20215;-69
2022/11/24 04:47:23;;;;;;;4.65;1.58;;;16.20;60.70;;;;;;5054671;28;20171;-70
2022/11/24 04:49:48;;;;;;;5.47;2.00;;;16.20;60.70;;;;;;5054903;28;20539;-69
2022/11/24 04:52:15;;;;;;;4.72;1.83;;;16.20;60.80;;;;;;5054500;28;20179;-69
2022/11/24 04:54:40;;;;;;;3.40;1.63;;;16.20;60.70;;;;;;5054972;28;20175;-69
2022/11/24 04:57:06;;;;;;;3.45;1.73;;;16.10;60.60;;;;;;5054963;28;20174;-68
2022/11/24 04:59:32;;;;;;;5.28;2.00;;;16.20;60.80;;;;;;5053952;28;20210;-70
2022/11/24 05:01:57;;;;;;;2.45;1.38;;;16.10;60.60;;;;;;5055169;28;20516;-69
2022/11/24 05:04:23;;;;;;;3.67;1.80;;;16.10;60.80;;;;;;5054961;28;20209;-70
2022/11/24 05:06:48;;;;;;;2.75;1.63;;;16.10;60.90;;;;;;5053896;28;20262;-70
2022/11/24 05:09:14;;;;;;;3.55;2.00;;;16.10;60.80;;;;;;5055036;28;20263;-70
2022/11/24 05:11:40;;;;;;;2.95;1.48;;;16.20;61.00;;;;;;5054290;28;20199;-70
2022/11/24 05:14:05;;;;;;;3.35;1.60;;;16.10;60.90;;;;;;5054258;28;20175;-69
2022/11/24 05:16:31;;;;;;;5.10;1.70;;;16.10;60.80;;;;;;5054086;28;20237;-70
2022/11/24 05:18:56;;;;;;;3.95;1.48;;;16.10;60.90;;;;;;5054695;28;20575;-70
2022/11/24 05:21:22;;;;;;;2.47;1.75;;;16.10;61.00;;;;;;5053879;28;20263;-71
2022/11/24 05:23:47;;;;;;;2.70;1.42;;;16.10;61.00;;;;;;5054334;28;20176;-71
2022/11/24 05:26:13;;;;;;;8.15;1.50;;;16.10;61.00;;;;;;5054414;28;20550;-69
2022/11/24 05:28:39;;;;;;;2.17;1.42;;;16.10;60.90;;;;;;5053524;28;20324;-70
2022/11/24 05:31:04;;;;;;;5.57;1.63;;;16.10;60.90;;;;;;5054236;28;20269;-69
2022/11/24 05:33:32;;;;;;;2.17;1.45;;;16.10;61.00;;;;;;5054392;28;20748;-69
2022/11/24 05:36:04;;;;;;;2.33;1.40;;;16.10;61.10;;;;;;5053513;28;20201;-70
2022/11/24 05:38:30;;;;;;;2.38;1.35;;;16.00;60.90;;;;;;5054139;28;20270;-70
2022/11/24 05:41:02;;;;;;;3.80;1.63;;;16.10;61.00;;;;;;5054000;28;20179;-71
2022/11/24 05:43:28;;;;;;;2.67;1.90;;;16.00;61.00;;;;;;5053356;28;20513;-70
2022/11/24 05:45:53;;;;;;;2.97;1.60;;;16.00;60.90;;;;;;5053851;28;20207;-70
2022/11/24 05:48:19;;;;;;;3.60;1.75;;;16.00;60.90;;;;;;5053939;28;20527;-70
2022/11/24 05:50:44;;;;;;;3.22;1.80;;;16.00;61.00;;;;;;5052377;28;20174;-69
2022/11/24 05:53:11;;;;;;;3.42;1.83;;;16.00;61.00;;;;;;5053739;28;20178;-69
2022/11/24 05:55:37;;;;;;;3.15;1.70;;;16.00;61.00;;;;;;5053128;28;20210;-69
2022/11/24 05:58:04;;;;;;;2.53;1.42;;;16.00;60.90;;;;;;5053743;28;20626;-69
2022/11/24 06:00:30;;;;;;;3.03;1.60;;;16.00;61.10;;;;;;5053835;28;20178;-70
2022/11/24 06:02:56;;;;;;;3.60;1.80;;;16.00;60.80;;;;;;5053173;28;20187;-70
2022/11/24 06:05:22;;;;;;;2.35;1.60;;;16.00;60.80;;;;;;5053548;28;20272;-70
2022/11/24 06:07:47;;;;;;;3.30;1.52;;;16.00;60.90;;;;;;5053334;28;20634;-70
2022/11/24 06:10:14;;;;;;;2.45;1.58;;;16.00;61.00;;;;;;5053046;28;20712;-69
2022/11/24 06:12:40;;;;;;;4.65;1.88;;;16.00;61.20;;;;;;5053433;28;20285;-70
2022/11/24 06:15:06;;;;;;;3.33;1.30;;;16.00;61.10;;;;;;5053547;28;20203;-70
2022/11/24 06:17:31;;;;;;;4.70;1.70;;;16.00;61.00;;;;;;5052291;28;20310;-70
2022/11/24 06:19:57;;;;;;;2.85;1.52;;;15.90;61.00;;;;;;5053455;28;20697;-70
2022/11/24 06:22:22;;;;;;;6.40;2.17;;;15.90;61.10;;;;;;5053331;28;20637;-70
2022/11/24 06:24:49;;;;;;;2.60;1.60;;;15.90;61.00;;;;;;5052478;28;20206;-70
2022/11/24 06:27:15;;;;;;;2.67;1.30;;;15.90;61.00;;;;;;5053305;28;20625;-69
2022/11/24 06:29:40;;;;;;;2.60;1.55;;;15.90;60.90;;;;;;5053138;28;20182;-69
2022/11/24 06:32:06;;;;;;;6.03;1.75;;;15.90;60.80;;;;;;5052564;28;20175;-69
2022/11/24 06:34:31;;;;;;;2.72;1.63;;;15.90;60.90;;;;;;5053025;28;20179;-69
2022/11/24 06:36:57;;;;;;;3.42;1.50;;;15.90;61.00;;;;;;5053102;28;20167;-70
2022/11/24 06:39:22;;;;;;;3.15;1.48;;;15.90;60.90;;;;;;5052641;28;20171;-70
2022/11/24 06:41:51;;;;;;;2.65;1.40;;;15.90;60.70;;;;;;5052884;28;20174;-71
2022/11/24 06:44:16;;;;;;;5.07;1.73;;;16.00;60.80;;;;;;5053089;28;20230;-71
2022/11/24 06:46:42;;;;;;;3.17;1.55;;;16.00;60.50;;;;;;5052045;28;20587;-70
2022/11/24 06:49:07;;;;;;;4.68;1.52;;;16.00;60.30;;;;;;5052949;28;20645;-70
2022/11/24 06:51:33;;;;;;;2.53;1.65;;;16.00;60.20;;;;;;5052462;28;20257;-70
2022/11/24 06:53:59;;;;;;;2.40;1.40;;;16.00;60.20;;;;;;5052394;28;20702;-69
2022/11/24 06:56:24;;;;;;;3.70;1.50;;;16.10;60.20;;;;;;5053075;28;20625;-69
2022/11/24 06:58:51;;;;;;;2.80;1.33;;;16.00;60.20;;;;;;5052043;28;20647;-69
2022/11/24 07:01:18;;;;;;;3.03;1.52;;;16.00;60.20;;;;;;5052891;28;20167;-70
2022/11/24 07:03:43;;;;;;;2.47;1.40;;;16.00;60.40;;;;;;5052341;28;20207;-71
2022/11/24 07:06:09;;;;;;;1.92;1.08;;;16.00;60.40;;;;;;5052100;28;20217;-70
2022/11/24 07:08:34;;;;;;;3.75;1.42;;;16.00;60.40;;;;;;5052395;28;20198;-70
2022/11/24 07:11:06;;;;;;;2.03;1.33;;;16.00;59.90;;;;;;5052621;28;20179;-69
2022/11/24 07:13:33;;;;;;;2.63;1.33;;;16.10;59.80;;;;;;5051560;28;20187;-72
2022/11/24 07:15:59;;;;;;;2.10;1.58;;;16.20;59.80;;;;;;5052402;28;20222;-70
2022/11/24 07:18:25;;;;;;;3.47;1.17;;;16.30;59.70;;;;;;5052688;28;20171;-71
2022/11/24 07:20:50;;;;;;;1.17;1.00;;;16.40;59.60;;;;;;5051574;28;20229;-71
2022/11/24 07:23:16;;;;;;;2.55;1.83;;;16.50;59.40;;;;;;5052901;28;20178;-71
2022/11/24 07:25:41;;;;;;;2.42;1.15;;;16.60;59.20;;;;;;5052388;28;20268;-70
2022/11/24 07:28:07;;;;;;;2.78;1.40;;;16.70;59.10;;;;;;5051876;28;20240;-69
2022/11/24 07:30:32;;;;;;;1.60;1.02;;;16.80;59.00;;;;;;5052451;28;20696;-69
2022/11/24 07:32:59;;;;;;;1.58;0.98;;;16.80;59.00;;;;;;5052599;28;20202;-69
2022/11/24 07:35:24;;;;;;;2.00;1.23;;;16.80;58.90;;;;;;5051701;28;20179;-70
2022/11/24 07:37:52;;;;;;;3.03;1.30;;;16.90;58.90;;;;;;5052454;28;20584;-71
2022/11/24 07:40:18;;;;;;;1.35;1.00;;;17.00;58.80;;;;;;5052047;28;20175;-70
2022/11/24 07:42:43;;;;;;;2.65;1.02;;;17.10;58.60;;;;;;5051541;28;20587;-72
2022/11/24 07:45:09;;;;;;;2.70;1.10;;;17.20;58.40;;;;;;5052277;28;20290;-71
2022/11/24 07:47:38;;;;;;;2.45;1.23;;;17.30;58.10;;;;;;5052123;28;20271;-70
2022/11/24 07:50:04;;;;;;;1.83;1.15;;;17.50;58.00;;;;;;5051717;28;20190;-71
2022/11/24 07:52:29;;;;;;;2.28;1.45;;;17.60;57.90;;;;;;5052245;28;20175;-71
2022/11/24 07:54:55;;;;;;;3.10;1.48;;;17.60;57.80;;;;;;5052049;28;20179;-71
2022/11/24 07:57:21;;;;;;;2.53;1.35;;;17.70;57.70;;;;;;5051851;28;20171;-66
2022/11/24 07:59:46;;;;;;;3.15;1.52;;;17.60;57.70;;;;;;5052235;28;20178;-66
2022/11/24 08:02:12;;;;;;;2.33;1.48;;;17.50;57.80;;;;;;5051680;28;20171;-66
2022/11/24 08:04:37;;;;;;;4.28;1.30;;;17.60;58.00;;;;;;5052113;28;20207;-66
2022/11/24 08:07:03;;;;;;;3.60;1.42;;;17.40;58.30;;;;;;5052363;28;20171;-66
2022/11/24 08:09:28;;;;;;;3.50;1.42;;;17.40;58.40;;;;;;5051625;28;20179;-62
2022/11/24 08:11:54;;;;;;;4.63;1.30;;;17.30;58.60;;;;;;5052071;28;20171;-65
2022/11/24 08:14:19;;;;;;;4.57;2.80;;;17.20;58.70;;;;;;5053082;28;20229;-65
2022/11/24 08:16:45;;;;;;;4.18;1.42;;;17.20;58.90;;;;;;5054537;28;20306;-65
2022/11/24 08:19:11;;;;;;;7.47;1.90;;;17.10;59.20;;;;;;5056003;28;20266;-64
2022/11/24 08:21:37;;;;;;;4.15;1.58;;;17.10;59.20;;;;;;5055409;28;20167;-65
2022/11/24 08:24:03;;;;;;;3.80;1.55;;;17.10;59.30;;;;;;5054942;28;20229;-65
2022/11/24 08:26:28;;;;;;;3.35;1.48;;;17.10;59.40;;;;;;5055650;28;20179;-65
2022/11/24 08:28:55;;;;;;;4.65;1.65;;;17.10;59.50;;;;;;5055330;28;20182;-65
2022/11/24 08:31:21;;;;;;;3.42;1.77;;;17.10;59.50;;;;;;5054700;28;20645;-65
2022/11/24 08:33:47;;;;;;;2.97;1.67;;;17.00;59.50;;;;;;5055072;28;20221;-65
2022/11/24 08:36:14;;;;;;;4.30;1.63;;;17.00;59.60;;;;;;5055646;28;20220;-66
2022/11/24 08:38:40;;;;;;;4.75;1.90;;;16.90;59.60;;;;;;5054553;28;20266;-66
2022/11/24 08:41:08;;;;;;;3.15;1.33;;;16.90;59.70;;;;;;5055468;28;20214;-65
2022/11/24 08:43:34;;;;;;;2.58;1.35;;;16.90;59.70;;;;;;5054925;28;20250;-65
2022/11/24 08:46:00;;;;;;;3.53;1.73;;;17.00;59.80;;;;;;5054416;28;20348;-65
2022/11/24 08:48:26;;;;;;;3.38;1.65;;;17.00;59.70;;;;;;5055376;28;20225;-65
2022/11/24 08:50:52;;;;;;;2.33;1.42;;;17.10;59.60;;;;;;5054850;28;20191;-65
2022/11/24 08:53:18;;;;;;;1.88;1.30;;;17.10;59.50;;;;;;5054416;28;20171;-65
2022/11/24 08:55:43;;;;;;;2.95;1.55;;;17.10;59.60;;;;;;5054956;28;20183;-65
2022/11/24 08:58:09;;;;;;;3.13;1.38;;;17.00;59.60;;;;;;5055249;28;20178;-65
2022/11/24 09:00:34;;;;;;;2.45;1.20;;;17.00;59.70;;;;;;5053921;28;20202;-65
2022/11/24 09:03:00;;;;;;;2.38;1.50;;;17.00;59.70;;;;;;5054801;28;20540;-65
2022/11/24 09:05:25;;;;;;;3.30;1.95;;;16.90;59.80;;;;;;5054299;28;20206;-65
2022/11/24 09:07:51;;;;;;;4.88;1.80;;;17.00;59.90;;;;;;5054628;28;20217;-66
2022/11/24 09:10:16;;;;;;;3.55;1.30;;;17.00;59.80;;;;;;5054985;28;20171;-65
2022/11/24 09:12:46;;;;;;;3.83;1.42;;;17.10;59.80;;;;;;5053953;28;20171;-66
2022/11/24 09:15:12;;;;;;;1.77;1.30;;;17.00;59.70;;;;;;5054799;28;20209;-65
2022/11/24 09:17:38;;;;;;;3.25;1.38;;;17.00;59.70;;;;;;5054160;28;20223;-65
2022/11/24 09:20:04;;;;;;;4.53;1.45;;;17.00;59.70;;;;;;5054049;28;20214;-65
2022/11/24 09:22:30;;;;;;;2.88;1.25;;;16.90;59.80;;;;;;5054740;28;20175;-65
2022/11/24 09:24:55;;;;;;;3.55;1.60;;;16.90;59.90;;;;;;5054612;28;20214;-65
2022/11/24 09:27:21;;;;;;;3.55;1.55;;;17.00;60.00;;;;;;5052796;28;20466;-65
2022/11/24 09:29:47;;;;;;;3.20;1.30;;;17.00;60.00;;;;;;5054235;28;20214;-65
2022/11/24 09:32:13;;;;;;;3.03;1.10;;;17.00;59.90;;;;;;5054555;28;20179;-65
2022/11/24 09:34:38;;;;;;;3.05;1.17;;;17.10;59.80;;;;;;5053311;28;20784;-65
2022/11/24 09:37:04;;;;;;;4.15;1.80;;;17.10;59.60;;;;;;5054313;28;20179;-65
2022/11/24 09:39:31;;;;;;;1.55;1.27;;;17.20;59.60;;;;;;5054250;28;20629;-66
2022/11/24 09:42:03;;;;;;;4.28;1.70;;;17.20;59.60;;;;;;5053478;28;20194;-65
2022/11/24 09:44:45;;;;;;;4.68;1.80;;;17.10;59.60;;;;;;5052817;28;20322;-66
2022/11/24 09:47:31;;;;;;;2.88;1.45;;;17.10;59.70;;;;;;5052848;28;20257;-65
2022/11/24 09:50:05;;;;;;;2.03;1.20;;;17.10;59.80;;;;;;5052095;28;20175;-65
2022/11/24 09:52:39;;;;;;;2.88;1.50;;;17.20;59.80;;;;;;5052541;28;20714;-65
2022/11/24 09:55:19;;;;;;;2.65;1.13;;;17.10;60.60;;;;;;5052194;28;20186;-65
2022/11/24 09:57:44;;;;;;;2.63;1.23;;;17.10;59.90;;;;;;5052693;28;20175;-65
2022/11/24 10:00:11;;;;;;;2.80;1.40;;;17.10;60.00;;;;;;5052703;28;20569;-65
2022/11/24 10:02:37;;;;;;;2.65;1.65;;;17.00;60.00;;;;;;5052873;28;20178;-66
2022/11/24 10:05:03;;;;;;;2.35;1.05;;;17.00;60.00;;;;;;5053695;28;20215;-65
2022/11/24 10:07:31;;;;;;;3.65;1.52;;;17.00;59.90;;;;;;5052388;28;20167;-66
2022/11/24 10:10:16;;;;;;;3.60;1.48;;;17.10;60.00;;;;;;5051937;28;20180;-65
2022/11/24 10:13:18;;;;;;;3.65;1.52;;;17.10;60.00;;;;;;5053588;28;20264;-65
2022/11/24 10:15:49;;;;;;;3.28;1.33;;;17.10;60.00;;;;;;5052549;28;20232;-65
2022/11/24 10:18:33;;;;;;;2.00;1.05;;;17.10;60.00;;;;;;5052338;28;20171;-65
2022/11/24 10:21:30;;;;;;;2.08;1.13;;;17.10;59.90;;;;;;5053615;28;20178;-65
2022/11/24 10:24:21;;;;;;;2.92;1.17;;;17.10;60.00;;;;;;5052159;28;20175;-65
2022/11/24 10:27:01;;;;;;;2.03;1.10;;;17.10;60.10;;;;;;5052018;28;20175;-65
2022/11/24 10:29:32;;;;;;;2.45;1.00;;;17.10;60.10;;;;;;5052252;28;20183;-65
2022/11/24 10:31:57;;;;;;;2.95;1.13;;;17.00;60.00;;;;;;5052513;28;20225;-65
2022/11/24 10:34:36;;;;;;;2.05;1.10;;;17.00;60.00;;;;;;5053168;28;20183;-66
2022/11/24 10:37:25;;;;;;;2.88;1.10;;;17.00;60.20;;;;;;5052292;28;20178;-66
2022/11/24 10:40:02;;;;;;;3.22;1.25;;;17.10;60.30;;;;;;5051826;28;20739;-66
2022/11/24 10:42:30;;;;;;;2.28;1.30;;;17.10;60.20;;;;;;5052093;28;20187;-65
2022/11/24 10:45:00;;;;;;;2.20;1.10;;;17.10;60.20;;;;;;5052290;28;20211;-65
2022/11/24 10:47:25;;;;;;;2.88;1.40;;;17.10;60.20;;;;;;5053053;28;20198;-65
2022/11/24 10:50:18;;;;;;;3.78;1.83;;;17.10;60.30;;;;;;5052894;28;20207;-64
2022/11/24 10:52:46;;;;;;;2.10;1.27;;;17.10;60.20;;;;;;5052011;28;20175;-65
2022/11/24 10:55:12;;;;;;;3.60;1.42;;;17.10;60.40;;;;;;5052821;28;20221;-64
2022/11/24 10:57:38;;;;;;;2.65;1.30;;;17.00;60.20;;;;;;5051444;28;20202;-64
2022/11/24 11:00:24;;;;;;;3.28;1.55;;;17.00;60.30;;;;;;5052391;28;20210;-64
2022/11/24 11:02:50;;;;;;;2.10;1.25;;;17.10;60.50;;;;;;5052381;28;20175;-65
2022/11/24 11:05:40;;;;;;;1.85;1.17;;;17.10;60.50;;;;;;5052028;28;20210;-65
2022/11/24 11:08:12;;;;;;;2.85;1.48;;;17.10;60.30;;;;;;5053009;28;20267;-65
2022/11/24 11:10:38;;;;;;;2.95;1.08;;;17.20;60.40;;;;;;5051523;28;20252;-64
2022/11/24 11:13:23;;;;;;;2.78;1.33;;;17.10;60.40;;;;;;5052109;28;20198;-64
2022/11/24 11:15:48;;;;;;;1.98;1.30;;;17.10;60.30;;;;;;5051102;28;20223;-64
2022/11/24 11:18:15;;;;;;;3.20;1.20;;;17.10;60.40;;;;;;5052761;28;20182;-65
2022/11/24 11:20:41;;;;;;;2.80;1.27;;;17.10;60.40;;;;;;5050790;28;20181;-64
2022/11/24 11:23:21;;;;;;;3.90;1.30;;;17.10;60.50;;;;;;5051390;28;20262;-64
2022/11/24 11:25:47;;;;;;;1.95;1.13;;;17.10;60.60;;;;;;5051258;28;20284;-64
2022/11/24 11:28:27;;;;;;;1.65;1.20;;;17.10;60.50;;;;;;5051925;28;20225;-64
2022/11/24 11:30:58;;;;;;;2.38;1.38;;;17.10;60.70;;;;;;5052308;28;20183;-64
2022/11/24 11:33:25;;;;;;;1.27;1.00;;;17.00;60.60;;;;;;5051801;28;20642;-65
2022/11/24 11:35:51;;;;;;;2.08;0.95;;;17.00;60.70;;;;;;5052363;28;20240;-65
2022/11/24 11:38:16;;;;;;;2.38;1.33;;;17.00;60.80;;;;;;5052608;28;20167;-66
2022/11/24 11:40:42;;;;;;;4.63;1.55;;;17.10;60.90;;;;;;5050151;28;20178;-65
2022/11/24 11:43:34;;;;;;;2.47;1.40;;;17.00;60.90;;;;;;5051665;28;20168;-64
2022/11/24 11:46:08;;;;;;;3.10;1.10;;;17.00;60.90;;;;;;5049402;28;20301;-64
2022/11/24 11:48:35;;;;;;;2.22;1.00;;;17.00;61.80;;;;;;5050482;28;20232;-64
2022/11/24 11:51:04;;;;;;;3.17;1.23;;;17.00;61.10;;;;;;5054748;28;20185;-64
2022/11/24 11:53:48;;;;;;;2.97;1.40;;;17.00;61.00;;;;;;5056090;28;20186;-64
2022/11/24 11:56:33;;;;;;;3.08;1.20;;;17.00;61.00;;;;;;5055720;28;20175;-64
2022/11/24 11:59:18;;;;;;;2.45;1.38;;;17.10;61.00;;;;;;5056305;28;20594;-65
2022/11/24 12:01:43;;;;;;;2.00;1.33;;;17.10;61.00;;;;;;5055193;28;20212;-67
2022/11/24 12:04:36;;;;;;;4.13;1.42;;;17.00;60.90;;;;;;5056061;28;20175;-64
2022/11/24 12:07:31;;;;;;;5.43;1.60;;;17.10;61.00;;;;;;5056092;28;20277;-64
2022/11/24 12:10:18;;;;;;;2.78;1.08;;;17.10;60.90;;;;;;5054067;28;20262;-63
2022/11/24 12:13:11;;;;;;;4.78;1.75;;;17.10;60.90;;;;;;5055793;28;20576;-63
2022/11/24 12:15:44;;;;;;;3.67;1.60;;;17.10;60.80;;;;;;5053702;28;20182;-63
2022/11/24 12:18:36;;;;;;;3.67;1.70;;;17.20;61.00;;;;;;5055872;28;20221;-63
2022/11/24 12:21:04;;;;;;;1.95;1.45;;;17.20;61.00;;;;;;5055983;28;20203;-65
2022/11/24 12:23:32;;;;;;;4.95;2.13;;;17.10;61.50;;;;;;5055159;28;20579;-64
2022/11/24 12:26:19;;;;;;;2.15;1.10;;;17.20;61.20;;;;;;5054512;28;20322;-64
2022/11/24 12:29:05;;;;;;;2.13;1.60;;;17.10;61.30;;;;;;5054206;28;20179;-64
2022/11/24 12:31:55;;;;;;;4.53;1.70;;;17.10;61.30;;;;;;5050362;28;20668;-64
2022/11/24 12:34:23;;;;;;;3.35;1.10;;;17.10;61.40;;;;;;5056493;28;20178;-64
2022/11/24 12:37:15;;;;;;;3.83;1.40;;;17.00;61.30;;;;;;5053222;28;20185;-64
2022/11/24 12:40:02;;;;;;;4.30;1.60;;;17.10;61.50;;;;;;5055258;28;20183;-77
2022/11/24 12:42:51;;;;;;;4.40;1.42;;;17.00;61.50;;;;;;5055572;28;20178;-68
2022/11/24 12:45:55;;;;;;;3.65;1.23;;;17.00;61.30;;;;;;5053260;28;20716;-68
2022/11/24 12:48:24;;;;;;;4.07;1.27;;;17.10;61.30;;;;;;5055440;28;20167;-69
2022/11/24 12:50:49;;;;;;;4.35;1.50;;;17.10;61.20;;;;;;5054275;28;20187;-70
2022/11/24 12:53:46;;;;;;;4.10;1.10;;;17.10;61.20;;;;;;5055171;28;20179;-68
2022/11/24 12:56:12;;;;;;;1.77;1.20;;;17.10;61.10;;;;;;5054045;28;20230;-67